Time;durP1;ratioP1;P1;durP2;ratioP2;P2;SDS_P1;SDS_P2;PMS_P1;PMS_P2;Temp;Humidity;BMP_temperature;BMP_pressure;BME280_temperature;BME280_humidity;BME280_pressure;Samples;Min_cycle;Max_cycle;Signal;HPM_P1;HPM_P2
2022/08/26 00:02:12;;;;;;;9.02;1.73;;;23.10;99.90;;;;;;5007920;28;20141;-71
2022/08/26 00:04:38;;;;;;;0.00;0.00;;;23.00;99.90;;;;;;5009385;28;20150;-70
2022/08/26 00:07:04;;;;;;;1.75;1.08;;;23.00;99.90;;;;;;5007503;28;20087;-70
2022/08/26 00:09:30;;;;;;;0.30;0.15;;;23.00;99.90;;;;;;4994688;28;20046;-70
2022/08/26 00:11:55;;;;;;;0.00;0.00;;;22.90;99.90;;;;;;5004919;28;20050;-70
2022/08/26 00:14:22;;;;;;;0.20;0.10;;;22.90;99.90;;;;;;5009423;28;20049;-70
2022/08/26 00:16:47;;;;;;;0.30;0.30;;;22.90;99.90;;;;;;5008064;28;20117;-70
2022/08/26 00:19:13;;;;;;;1.55;0.38;;;22.90;99.90;;;;;;4995025;28;20165;-71
2022/08/26 00:21:39;;;;;;;1.10;0.52;;;22.80;99.90;;;;;;5001944;28;20387;-70
2022/08/26 00:24:04;;;;;;;0.03;0.03;;;22.80;99.90;;;;;;5007905;28;20054;-69
2022/08/26 00:26:32;;;;;;;0.30;0.30;;;22.70;99.90;;;;;;4998202;28;20038;-68
2022/08/26 00:28:57;;;;;;;0.63;0.63;;;22.80;99.90;;;;;;5002680;28;20536;-68
2022/08/26 00:31:23;;;;;;;0.05;0.05;;;22.70;99.90;;;;;;5005732;28;20046;-69
2022/08/26 00:33:49;;;;;;;0.10;0.10;;;22.70;99.90;;;;;;5005402;28;20057;-70
2022/08/26 00:36:15;;;;;;;0.00;0.00;;;22.70;99.90;;;;;;4995168;28;20062;-70
2022/08/26 00:38:41;;;;;;;1.40;0.40;;;22.70;99.90;;;;;;5004759;28;20513;-68
2022/08/26 00:41:06;;;;;;;2.05;1.48;;;22.70;99.90;;;;;;5004827;28;20053;-69
2022/08/26 00:43:35;;;;;;;0.00;0.00;;;22.70;99.90;;;;;;5005351;28;20042;-69
2022/08/26 00:46:09;;;;;;;0.47;0.35;;;22.70;99.90;;;;;;4999792;28;20402;-69
2022/08/26 00:48:38;;;;;;;12.50;1.45;;;22.60;99.90;;;;;;5004315;28;20054;-69
2022/08/26 00:51:14;;;;;;;0.15;0.15;;;22.70;99.90;;;;;;5000530;28;20047;-69
2022/08/26 00:53:46;;;;;;;0.28;0.28;;;22.70;99.90;;;;;;4996905;28;20634;-68
2022/08/26 00:56:23;;;;;;;0.22;0.10;;;22.60;99.90;;;;;;5005288;28;20050;-68
2022/08/26 00:58:49;;;;;;;0.00;0.00;;;22.60;99.90;;;;;;4999501;28;20054;-69
2022/08/26 01:01:16;;;;;;;0.10;0.10;;;22.60;99.90;;;;;;5007392;28;20498;-69
2022/08/26 01:03:44;;;;;;;0.55;0.55;;;22.50;99.90;;;;;;5002360;28;20675;-68
2022/08/26 01:06:11;;;;;;;0.45;0.45;;;22.50;99.90;;;;;;4993922;28;20049;-70
2022/08/26 01:08:36;;;;;;;0.35;0.35;;;22.50;99.90;;;;;;4999264;28;20038;-70
2022/08/26 01:11:03;;;;;;;0.20;0.10;;;22.50;99.90;;;;;;5000759;28;20054;-70
2022/08/26 01:13:30;;;;;;;0.70;0.70;;;22.50;99.90;;;;;;4994326;28;20044;-70
2022/08/26 01:15:59;;;;;;;0.00;0.00;;;22.40;99.90;;;;;;4998902;28;20049;-71
2022/08/26 01:18:25;;;;;;;0.55;0.47;;;22.40;99.90;;;;;;5002720;28;20101;-70
2022/08/26 01:21:13;;;;;;;0.00;0.00;;;22.30;99.90;;;;;;4997969;28;20128;-70
2022/08/26 01:23:44;;;;;;;8.20;0.95;;;22.30;99.90;;;;;;5006414;28;20133;-71
2022/08/26 01:26:15;;;;;;;0.40;0.10;;;22.20;99.90;;;;;;4997595;28;20092;-70
2022/08/26 01:28:42;;;;;;;0.00;0.00;;;22.20;99.90;;;;;;4996776;28;20050;-70
2022/08/26 01:31:12;;;;;;;0.00;0.00;;;22.20;99.90;;;;;;4996480;28;20061;-71
2022/08/26 01:33:58;;;;;;;6.07;0.98;;;22.20;99.90;;;;;;4999024;28;20626;-70
2022/08/26 01:36:23;;;;;;;0.00;0.00;;;22.20;99.90;;;;;;5006220;28;20451;-71
2022/08/26 01:38:49;;;;;;;1.08;0.57;;;22.20;99.90;;;;;;5004295;28;20133;-70
2022/08/26 01:41:15;;;;;;;0.00;0.00;;;22.30;99.90;;;;;;4994340;28;20086;-71
2022/08/26 01:43:44;;;;;;;0.00;0.00;;;22.20;99.90;;;;;;5006363;28;20042;-70
2022/08/26 01:46:11;;;;;;;0.00;0.00;;;22.10;99.90;;;;;;5002820;28;20093;-71
2022/08/26 01:48:40;;;;;;;0.65;0.65;;;22.10;99.90;;;;;;4992187;28;20461;-71
2022/08/26 01:51:09;;;;;;;0.00;0.00;;;22.10;99.90;;;;;;4995572;28;20050;-71
2022/08/26 01:53:36;;;;;;;0.00;0.00;;;22.10;99.90;;;;;;5006466;28;20042;-71
2022/08/26 01:56:03;;;;;;;0.17;0.17;;;22.10;99.90;;;;;;5008051;28;20041;-71
2022/08/26 01:58:38;;;;;;;1.75;0.65;;;22.10;99.90;;;;;;4998998;28;20089;-71
2022/08/26 02:01:04;;;;;;;0.10;0.10;;;22.10;99.90;;;;;;5004233;28;20054;-71
2022/08/26 02:03:31;;;;;;;0.28;0.20;;;22.00;99.90;;;;;;5002295;28;20125;-71
2022/08/26 02:06:02;;;;;;;4.47;1.95;;;22.00;99.90;;;;;;5002934;28;20059;-71
2022/08/26 02:08:37;;;;;;;0.10;0.10;;;22.00;99.90;;;;;;4994546;28;20070;-70
2022/08/26 02:11:03;;;;;;;0.03;0.03;;;22.00;99.90;;;;;;5004164;28;20096;-71
2022/08/26 02:13:31;;;;;;;0.00;0.00;;;22.00;99.90;;;;;;5008329;28;20081;-71
2022/08/26 02:15:59;;;;;;;1.17;0.20;;;22.00;99.90;;;;;;5000329;28;20498;-70
2022/08/26 02:18:28;;;;;;;0.00;0.00;;;22.00;99.90;;;;;;5000529;28;20057;-70
2022/08/26 02:20:54;;;;;;;0.00;0.00;;;22.10;99.90;;;;;;5007861;28;20375;-71
2022/08/26 02:23:20;;;;;;;0.00;0.00;;;22.10;99.90;;;;;;5006544;28;20121;-71
2022/08/26 02:25:53;;;;;;;0.00;0.00;;;22.00;99.90;;;;;;5002439;28;20136;-71
2022/08/26 02:28:19;;;;;;;0.00;0.00;;;22.10;99.90;;;;;;5005993;28;20062;-71
2022/08/26 02:30:46;;;;;;;0.00;0.00;;;22.10;99.90;;;;;;4999615;28;20077;-70
2022/08/26 02:33:12;;;;;;;0.88;0.88;;;22.10;99.90;;;;;;4999888;28;20038;-71
2022/08/26 02:35:38;;;;;;;0.00;0.00;;;22.00;99.90;;;;;;5000092;28;20539;-71
2022/08/26 02:38:07;;;;;;;5.72;0.30;;;22.00;99.90;;;;;;5000807;28;20034;-71
2022/08/26 02:40:38;;;;;;;0.00;0.00;;;22.00;99.90;;;;;;5001661;28;20051;-71
2022/08/26 02:43:04;;;;;;;0.10;0.10;;;22.10;99.90;;;;;;4997388;28;20490;-71
2022/08/26 02:45:29;;;;;;;0.00;0.00;;;22.00;99.90;;;;;;5000880;28;20049;-71
2022/08/26 02:47:57;;;;;;;0.20;0.20;;;22.00;99.90;;;;;;5003906;28;20050;-71
2022/08/26 02:50:24;;;;;;;0.00;0.00;;;22.00;99.90;;;;;;4996254;28;20045;-71
2022/08/26 02:52:50;;;;;;;0.30;0.20;;;22.00;99.90;;;;;;5006589;28;20053;-71
2022/08/26 02:55:16;;;;;;;0.00;0.00;;;22.00;99.90;;;;;;5005346;28;20510;-71
2022/08/26 02:57:42;;;;;;;2.22;0.80;;;21.90;99.90;;;;;;4993836;28;20066;-71
2022/08/26 03:00:10;;;;;;;0.00;0.00;;;21.90;99.90;;;;;;4999105;28;20065;-71
2022/08/26 03:02:36;;;;;;;0.10;0.10;;;21.90;99.90;;;;;;5007100;28;20046;-71
2022/08/26 03:05:02;;;;;;;3.78;0.52;;;21.90;99.90;;;;;;5003005;28;20453;-71
2022/08/26 03:07:28;;;;;;;0.00;0.00;;;21.90;99.90;;;;;;4995201;28;20553;-71
2022/08/26 03:09:54;;;;;;;0.10;0.10;;;21.90;99.90;;;;;;5005712;28;20077;-71
2022/08/26 03:12:19;;;;;;;0.00;0.00;;;21.90;99.90;;;;;;4996019;28;20065;-71
2022/08/26 03:14:46;;;;;;;0.00;0.00;;;21.90;99.90;;;;;;5003275;28;20057;-70
2022/08/26 03:17:12;;;;;;;0.05;0.05;;;21.80;99.90;;;;;;4999032;28;20042;-70
2022/08/26 03:19:37;;;;;;;0.10;0.10;;;21.80;99.90;;;;;;5001297;28;20597;-70
2022/08/26 03:22:03;;;;;;;0.00;0.00;;;21.80;99.90;;;;;;4999595;28;20050;-70
2022/08/26 03:24:29;;;;;;;0.00;0.00;;;21.80;99.90;;;;;;4997586;28;20049;-70
2022/08/26 03:26:55;;;;;;;0.90;0.47;;;21.80;99.90;;;;;;4992721;28;20050;-70
2022/08/26 03:32:07;;;;;;;19.52;0.80;;;21.70;99.90;;;;;;4993215;28;20048;-71
2022/08/26 03:34:34;;;;;;;0.00;0.00;;;21.80;99.90;;;;;;4994242;28;20038;-70
2022/08/26 03:37:00;;;;;;;4.30;1.48;;;21.70;99.90;;;;;;5006126;28;20049;-70
2022/08/26 03:39:25;;;;;;;0.00;0.00;;;21.80;99.90;;;;;;5000578;28;20402;-70
2022/08/26 03:41:51;;;;;;;0.00;0.00;;;21.70;99.90;;;;;;5001286;28;20049;-70
2022/08/26 03:44:17;;;;;;;0.00;0.00;;;21.70;99.90;;;;;;5003764;28;20084;-71
2022/08/26 03:46:43;;;;;;;0.00;0.00;;;21.70;99.90;;;;;;4998013;28;20042;-70
2022/08/26 03:49:08;;;;;;;0.05;0.05;;;21.70;99.90;;;;;;4989971;28;20042;-70
2022/08/26 03:51:36;;;;;;;0.00;0.00;;;21.70;99.90;;;;;;4994675;28;20105;-71
2022/08/26 03:54:01;;;;;;;8.57;1.77;;;21.70;99.90;;;;;;5004950;28;20072;-71
2022/08/26 03:56:28;;;;;;;13.35;2.53;;;21.70;99.90;;;;;;5003443;28;20476;-70
2022/08/26 03:58:54;;;;;;;0.70;0.70;;;21.80;99.90;;;;;;5000003;28;20137;-70
2022/08/26 04:01:19;;;;;;;0.00;0.00;;;21.70;99.90;;;;;;5008046;28;20132;-70
2022/08/26 04:03:57;;;;;;;0.15;0.15;;;21.80;99.90;;;;;;5001221;28;20367;-70
2022/08/26 04:06:33;;;;;;;0.13;0.13;;;21.80;99.90;;;;;;4997280;28;20089;-70
2022/08/26 04:09:00;;;;;;;0.00;0.00;;;21.70;99.90;;;;;;5000793;28;20038;-70
2022/08/26 04:11:29;;;;;;;0.47;0.22;;;21.70;99.90;;;;;;4993943;28;20042;-70
2022/08/26 04:13:55;;;;;;;0.73;0.73;;;21.70;99.90;;;;;;4995037;28;20046;-70
2022/08/26 04:16:21;;;;;;;0.08;0.08;;;21.70;99.90;;;;;;4999628;28;20467;-70
2022/08/26 04:18:46;;;;;;;0.65;0.65;;;21.60;99.90;;;;;;5005173;28;20057;-70
2022/08/26 04:21:12;;;;;;;0.00;0.00;;;21.60;99.90;;;;;;5001016;28;20049;-70
2022/08/26 04:23:38;;;;;;;0.10;0.10;;;21.60;99.90;;;;;;4990102;28;20418;-70
2022/08/26 04:26:04;;;;;;;0.08;0.08;;;21.60;99.90;;;;;;4994574;28;20196;-70
2022/08/26 04:28:30;;;;;;;0.40;0.40;;;21.60;99.90;;;;;;5004116;28;20096;-70
2022/08/26 04:30:56;;;;;;;0.47;0.30;;;21.50;99.90;;;;;;4994221;28;20445;-70
2022/08/26 04:33:22;;;;;;;4.38;2.00;;;21.70;99.90;;;;;;5003021;28;20076;-70
2022/08/26 04:35:48;;;;;;;0.00;0.00;;;21.60;99.90;;;;;;5005340;28;20137;-70
2022/08/26 04:38:15;;;;;;;0.00;0.00;;;21.60;99.90;;;;;;5007454;28;20042;-70
2022/08/26 04:40:45;;;;;;;0.35;0.35;;;21.60;99.90;;;;;;4997285;28;20057;-70
2022/08/26 04:43:10;;;;;;;0.00;0.00;;;21.60;99.90;;;;;;4993585;28;20057;-70
2022/08/26 04:45:39;;;;;;;0.20;0.20;;;21.60;99.90;;;;;;4999050;28;20046;-70
2022/08/26 04:48:05;;;;;;;0.15;0.15;;;21.60;99.90;;;;;;4994738;28;20065;-70
2022/08/26 04:50:31;;;;;;;0.00;0.00;;;21.50;99.90;;;;;;5003391;28;20038;-70
2022/08/26 04:52:57;;;;;;;0.00;0.00;;;21.50;99.90;;;;;;5000563;28;20209;-70
2022/08/26 04:55:24;;;;;;;0.22;0.22;;;21.40;99.90;;;;;;5000804;28;20089;-71
2022/08/26 04:57:50;;;;;;;0.00;0.00;;;21.30;99.90;;;;;;5003647;28;20133;-70
2022/08/26 05:00:16;;;;;;;1.80;1.25;;;21.30;99.90;;;;;;4997252;28;20050;-70
2022/08/26 05:02:42;;;;;;;0.00;0.00;;;21.30;99.90;;;;;;4998420;28;20115;-70
2022/08/26 05:05:08;;;;;;;0.22;0.13;;;21.30;99.90;;;;;;4997019;28;20685;-70
2022/08/26 05:07:34;;;;;;;0.00;0.00;;;21.20;99.90;;;;;;4999575;28;20041;-70
2022/08/26 05:10:00;;;;;;;0.00;0.00;;;21.20;99.90;;;;;;4993945;28;20129;-70
2022/08/26 05:12:28;;;;;;;0.00;0.00;;;21.10;99.90;;;;;;4995170;28;20049;-70
2022/08/26 05:14:54;;;;;;;0.00;0.00;;;21.20;99.90;;;;;;4995556;28;20442;-70
2022/08/26 05:17:20;;;;;;;0.00;0.00;;;21.20;99.90;;;;;;4999633;28;20046;-70
2022/08/26 05:19:46;;;;;;;0.00;0.00;;;21.20;99.90;;;;;;5004974;28;20050;-70
2022/08/26 05:22:12;;;;;;;1.20;0.55;;;21.20;99.90;;;;;;5001773;28;20039;-70
2022/08/26 05:24:37;;;;;;;0.32;0.30;;;21.20;99.90;;;;;;4992533;28;20053;-70
2022/08/26 05:27:03;;;;;;;0.10;0.10;;;21.20;99.90;;;;;;5004125;28;20076;-70
2022/08/26 05:29:28;;;;;;;0.00;0.00;;;21.10;99.90;;;;;;5006181;28;20053;-70
2022/08/26 05:31:54;;;;;;;0.30;0.30;;;21.10;99.90;;;;;;5006781;28;20409;-71
2022/08/26 05:34:20;;;;;;;0.05;0.05;;;21.20;99.90;;;;;;5001925;28;20053;-70
2022/08/26 05:36:45;;;;;;;0.00;0.00;;;21.10;99.90;;;;;;4995661;28;20136;-71
2022/08/26 05:39:11;;;;;;;0.00;0.00;;;21.10;99.90;;;;;;5005527;28;20048;-71
2022/08/26 05:41:39;;;;;;;0.00;0.00;;;21.10;99.90;;;;;;4992528;28;20474;-71
2022/08/26 05:44:08;;;;;;;0.00;0.00;;;21.20;99.90;;;;;;4995789;28;20047;-71
2022/08/26 05:46:35;;;;;;;0.00;0.00;;;21.20;99.90;;;;;;4999537;28;20054;-71
2022/08/26 05:49:02;;;;;;;2.80;0.70;;;21.20;99.90;;;;;;4999515;28;20085;-71
2022/08/26 05:51:28;;;;;;;0.08;0.08;;;21.10;99.90;;;;;;5002694;28;20549;-71
2022/08/26 05:53:54;;;;;;;0.10;0.10;;;21.20;99.90;;;;;;5002195;28;20040;-71
2022/08/26 05:56:23;;;;;;;0.00;0.00;;;21.10;99.90;;;;;;4999840;28;20520;-71
2022/08/26 05:58:49;;;;;;;2.17;1.08;;;21.10;99.90;;;;;;4987782;28;20081;-70
2022/08/26 06:01:19;;;;;;;4.50;0.60;;;21.20;99.90;;;;;;4992598;28;20144;-71
2022/08/26 06:03:48;;;;;;;0.00;0.00;;;21.20;99.90;;;;;;5001265;28;20050;-70
2022/08/26 06:06:24;;;;;;;0.00;0.00;;;21.20;99.90;;;;;;4997434;28;20045;-70
2022/08/26 06:08:50;;;;;;;0.00;0.00;;;21.20;99.90;;;;;;4999682;28;20057;-71
2022/08/26 06:11:18;;;;;;;0.00;0.00;;;21.10;99.90;;;;;;5001247;28;20124;-70
2022/08/26 06:13:45;;;;;;;0.00;0.00;;;21.10;99.90;;;;;;4995941;28;20079;-70
2022/08/26 06:16:14;;;;;;;0.00;0.00;;;21.20;99.90;;;;;;4993893;28;20046;-70
2022/08/26 06:18:42;;;;;;;0.00;0.00;;;21.10;99.90;;;;;;5003354;28;20417;-70
2022/08/26 06:21:17;;;;;;;0.00;0.00;;;21.10;99.90;;;;;;5000427;28;20046;-70
2022/08/26 06:26:29;;;;;;;0.63;0.40;;;21.20;99.90;;;;;;4995118;28;20042;-70
2022/08/26 06:28:55;;;;;;;0.10;0.10;;;21.20;99.90;;;;;;4999351;28;20061;-70
2022/08/26 06:31:22;;;;;;;0.00;0.00;;;21.20;99.90;;;;;;5001571;28;20042;-70
2022/08/26 06:33:48;;;;;;;0.00;0.00;;;21.20;99.90;;;;;;5018811;28;20466;-70
2022/08/26 06:36:22;;;;;;;1.45;0.65;;;21.10;99.90;;;;;;4989935;28;20128;-70
2022/08/26 06:38:49;;;;;;;0.00;0.00;;;21.20;99.90;;;;;;4999533;28;20050;-70
2022/08/26 06:41:16;;;;;;;25.50;1.58;;;21.10;99.90;;;;;;4996720;28;20575;-70
2022/08/26 06:43:42;;;;;;;0.00;0.00;;;21.20;99.90;;;;;;4995845;28;20481;-71
2022/08/26 06:46:11;;;;;;;0.32;0.13;;;21.20;99.90;;;;;;5003814;28;20050;-71
2022/08/26 06:48:38;;;;;;;0.00;0.00;;;21.20;99.90;;;;;;5001230;28;20479;-71
2022/08/26 06:51:10;;;;;;;0.10;0.10;;;21.30;99.90;;;;;;5005335;28;20041;-71
2022/08/26 06:53:37;;;;;;;0.00;0.00;;;21.30;99.90;;;;;;5002942;28;20413;-70
2022/08/26 06:56:05;;;;;;;0.00;0.00;;;21.30;99.90;;;;;;5000490;28;20442;-71
2022/08/26 06:58:32;;;;;;;0.00;0.00;;;21.30;99.90;;;;;;4996368;28;20060;-70
2022/08/26 07:00:58;;;;;;;0.00;0.00;;;21.40;99.90;;;;;;4992990;28;20561;-71
2022/08/26 07:03:24;;;;;;;0.10;0.10;;;21.30;99.90;;;;;;5009133;28;20037;-70
2022/08/26 07:05:49;;;;;;;6.03;2.38;;;21.40;99.90;;;;;;5007087;28;20060;-70
2022/08/26 07:08:15;;;;;;;0.00;0.00;;;21.40;99.90;;;;;;4997195;28;20053;-70
2022/08/26 07:10:41;;;;;;;0.28;0.28;;;21.40;99.90;;;;;;5004740;28;20057;-70
2022/08/26 07:13:08;;;;;;;0.00;0.00;;;21.40;99.90;;;;;;5003162;28;20109;-70
2022/08/26 07:15:34;;;;;;;0.00;0.00;;;21.40;99.90;;;;;;4996794;28;20046;-70
2022/08/26 07:18:01;;;;;;;0.00;0.00;;;21.40;99.90;;;;;;5006764;28;20060;-70
2022/08/26 07:20:27;;;;;;;0.52;0.52;;;21.30;99.90;;;;;;5004986;28;20042;-70
2022/08/26 07:22:53;;;;;;;3.95;1.30;;;21.40;99.90;;;;;;5000630;28;20100;-70
2022/08/26 07:25:18;;;;;;;0.00;0.00;;;21.40;99.90;;;;;;4991364;28;20046;-70
2022/08/26 07:27:45;;;;;;;0.28;0.28;;;21.50;99.90;;;;;;4999383;28;20049;-70
2022/08/26 07:30:11;;;;;;;0.00;0.00;;;21.50;99.90;;;;;;4993883;28;20104;-70
2022/08/26 07:32:36;;;;;;;0.00;0.00;;;21.50;99.90;;;;;;4999719;28;20038;-70
2022/08/26 07:35:03;;;;;;;0.00;0.00;;;21.50;99.90;;;;;;4991831;28;20046;-70
2022/08/26 07:37:29;;;;;;;0.00;0.00;;;21.60;99.90;;;;;;4993187;28;20121;-70
2022/08/26 07:39:54;;;;;;;0.40;0.40;;;21.60;99.90;;;;;;4993367;28;20126;-70
2022/08/26 07:42:20;;;;;;;0.00;0.00;;;21.70;99.90;;;;;;5009085;28;20046;-70
2022/08/26 07:44:46;;;;;;;0.00;0.00;;;21.60;99.90;;;;;;5008380;28;20050;-70
2022/08/26 07:47:12;;;;;;;0.00;0.00;;;21.70;99.90;;;;;;5001649;28;20045;-70
2022/08/26 07:49:38;;;;;;;0.10;0.10;;;21.70;99.90;;;;;;4995681;28;20081;-70
2022/08/26 07:52:04;;;;;;;0.10;0.05;;;21.70;99.90;;;;;;5003186;28;20058;-70
2022/08/26 07:54:30;;;;;;;0.00;0.00;;;21.80;99.90;;;;;;5001030;28;20125;-69
2022/08/26 07:56:56;;;;;;;0.00;0.00;;;21.70;99.90;;;;;;4995759;28;20153;-70
2022/08/26 07:59:22;;;;;;;0.00;0.00;;;21.70;99.90;;;;;;4996627;28;20050;-70
2022/08/26 08:01:48;;;;;;;0.08;0.08;;;21.60;99.90;;;;;;4990213;28;20474;-70
2022/08/26 08:04:16;;;;;;;0.43;0.20;;;21.40;99.90;;;;;;5001026;28;20103;-70
2022/08/26 08:06:42;;;;;;;0.00;0.00;;;21.30;99.90;;;;;;4992476;28;20039;-70
2022/08/26 08:09:08;;;;;;;0.43;0.43;;;21.20;99.90;;;;;;4991470;28;20433;-70
2022/08/26 08:11:34;;;;;;;0.00;0.00;;;21.20;99.90;;;;;;4998613;28;20080;-70
2022/08/26 08:14:00;;;;;;;2.20;0.75;;;21.20;99.90;;;;;;4989115;28;20683;-69
2022/08/26 08:16:27;;;;;;;0.00;0.00;;;21.10;99.90;;;;;;5008096;28;20053;-70
2022/08/26 08:18:55;;;;;;;0.00;0.00;;;21.10;99.90;;;;;;5003920;28;20049;-70
2022/08/26 08:21:22;;;;;;;0.00;0.00;;;21.10;99.90;;;;;;4995029;28;20088;-70
2022/08/26 08:23:47;;;;;;;0.05;0.05;;;21.20;99.90;;;;;;5006288;28;20045;-70
2022/08/26 08:26:15;;;;;;;0.00;0.00;;;21.10;99.90;;;;;;4996728;28;20054;-72
2022/08/26 08:28:41;;;;;;;0.00;0.00;;;21.10;99.90;;;;;;4998256;28;20474;-70
2022/08/26 08:31:07;;;;;;;0.00;0.00;;;21.00;99.90;;;;;;5009116;28;20045;-70
2022/08/26 08:33:33;;;;;;;0.00;0.00;;;21.00;99.90;;;;;;4995642;28;20042;-70
2022/08/26 08:36:00;;;;;;;1.27;1.10;;;21.00;99.90;;;;;;5000559;28;20405;-71
2022/08/26 08:38:26;;;;;;;5.75;2.20;;;20.90;99.90;;;;;;5008531;28;20045;-71
2022/08/26 08:40:52;;;;;;;0.00;0.00;;;21.00;99.90;;;;;;4998819;28;20046;-71
2022/08/26 08:43:46;;;;;;;0.00;0.00;;;21.00;99.90;;;;;;5000373;28;20096;-71
2022/08/26 08:46:15;;;;;;;0.00;0.00;;;20.90;99.90;;;;;;5001688;28;20071;-71
2022/08/26 08:48:47;;;;;;;0.15;0.15;;;20.90;99.90;;;;;;4995168;28;20038;-71
2022/08/26 08:51:38;;;;;;;0.00;0.00;;;21.00;99.90;;;;;;4997305;28;20133;-71
2022/08/26 08:54:05;;;;;;;0.00;0.00;;;21.00;99.90;;;;;;5007334;28;20172;-71
2022/08/26 08:56:36;;;;;;;0.00;0.00;;;21.00;99.90;;;;;;4988664;28;20043;-71
2022/08/26 08:59:13;;;;;;;0.00;0.00;;;21.00;99.90;;;;;;4996954;28;20050;-71
2022/08/26 09:01:50;;;;;;;0.00;0.00;;;21.00;99.90;;;;;;4995430;28;20459;-71
2022/08/26 09:04:30;;;;;;;0.00;0.00;;;21.00;99.90;;;;;;5004583;28;20046;-71
2022/08/26 09:06:59;;;;;;;0.10;0.10;;;21.00;99.90;;;;;;4999650;28;20046;-71
2022/08/26 09:09:47;;;;;;;0.00;0.00;;;21.00;99.90;;;;;;4999580;28;20129;-70
2022/08/26 09:12:21;;;;;;;0.00;0.00;;;20.90;99.90;;;;;;4995594;28;20568;-70
2022/08/26 09:14:48;;;;;;;0.10;0.10;;;20.90;99.90;;;;;;5006882;28;20046;-71
2022/08/26 09:17:22;;;;;;;0.20;0.20;;;20.90;99.90;;;;;;4998988;28;20052;-70
2022/08/26 09:19:54;;;;;;;0.00;0.00;;;21.00;99.90;;;;;;5001537;28;20053;-70
2022/08/26 09:22:33;;;;;;;0.10;0.10;;;21.00;99.90;;;;;;4993249;28;20413;-70
2022/08/26 09:25:00;;;;;;;0.43;0.43;;;21.10;99.90;;;;;;4991938;28;20057;-71
2022/08/26 09:27:44;;;;;;;0.00;0.00;;;21.00;99.90;;;;;;5020296;28;20525;-71
2022/08/26 09:30:14;;;;;;;0.47;0.47;;;21.00;99.90;;;;;;4987068;28;20050;-71
2022/08/26 09:32:40;;;;;;;0.00;0.00;;;21.00;99.90;;;;;;4994069;28;20053;-70
2022/08/26 09:35:23;;;;;;;0.00;0.00;;;21.10;99.90;;;;;;5006132;28;20046;-71
2022/08/26 09:37:48;;;;;;;0.10;0.10;;;21.10;99.90;;;;;;5008310;28;20087;-70
2022/08/26 09:40:23;;;;;;;0.00;0.00;;;21.10;99.90;;;;;;4999509;28;20039;-71
2022/08/26 09:43:18;;;;;;;0.00;0.00;;;21.10;99.90;;;;;;4998026;28;20243;-71
2022/08/26 09:45:53;;;;;;;1.45;1.08;;;21.10;99.90;;;;;;4991806;28;20133;-71
2022/08/26 09:48:28;;;;;;;0.00;0.00;;;21.10;99.90;;;;;;4991166;28;20049;-71
2022/08/26 09:51:06;;;;;;;0.00;0.00;;;21.10;99.90;;;;;;5001379;28;20045;-71
2022/08/26 09:53:49;;;;;;;11.85;0.30;;;21.10;99.90;;;;;;4989278;28;20034;-72
2022/08/26 09:56:24;;;;;;;0.00;0.00;;;21.10;99.90;;;;;;4994304;28;20064;-72
2022/08/26 09:58:50;;;;;;;0.00;0.00;;;21.10;99.90;;;;;;5006713;28;20133;-72
2022/08/26 10:01:22;;;;;;;0.00;0.00;;;21.00;99.90;;;;;;4990955;28;20471;-71
2022/08/26 10:03:48;;;;;;;0.00;0.00;;;21.10;99.90;;;;;;5000422;28;20046;-71
2022/08/26 10:06:17;;;;;;;2.83;0.85;;;21.20;99.90;;;;;;5001374;28;20053;-71
2022/08/26 10:08:50;;;;;;;0.00;0.00;;;21.10;99.90;;;;;;5002392;28;20077;-71
2022/08/26 10:11:37;;;;;;;0.00;0.00;;;20.90;99.90;;;;;;5002282;28;20049;-71
2022/08/26 10:14:16;;;;;;;0.00;0.00;;;20.90;99.90;;;;;;5009817;28;20045;-72
2022/08/26 10:17:02;;;;;;;0.15;0.15;;;20.80;99.90;;;;;;5004008;28;20049;-71
2022/08/26 10:19:34;;;;;;;2.80;0.77;;;20.90;99.90;;;;;;4996182;28;20050;-72
2022/08/26 10:22:09;;;;;;;3.70;1.10;;;20.90;99.90;;;;;;5001253;28;20054;-72
2022/08/26 10:24:43;;;;;;;0.10;0.10;;;20.90;99.90;;;;;;5002920;28;20388;-72
2022/08/26 10:27:26;;;;;;;0.00;0.00;;;20.90;99.90;;;;;;4995269;28;20038;-72
2022/08/26 10:29:55;;;;;;;0.10;0.10;;;21.00;99.90;;;;;;4997464;28;20115;-72
2022/08/26 10:32:36;;;;;;;0.00;0.00;;;21.00;99.90;;;;;;4995525;28;20040;-71
2022/08/26 10:35:03;;;;;;;0.00;0.00;;;21.00;99.90;;;;;;4993348;28;20043;-71
2022/08/26 10:37:36;;;;;;;0.10;0.10;;;21.10;99.90;;;;;;5000404;28;20097;-71
2022/08/26 10:40:12;;;;;;;0.00;0.00;;;21.20;99.90;;;;;;5008780;28;20406;-71
2022/08/26 10:42:57;;;;;;;0.00;0.00;;;21.10;99.90;;;;;;4998518;28;20057;-71
2022/08/26 10:45:28;;;;;;;0.00;0.00;;;21.10;99.90;;;;;;5002614;28;20046;-71
2022/08/26 10:48:09;;;;;;;0.00;0.00;;;21.10;99.90;;;;;;5007518;28;20042;-71
2022/08/26 10:50:39;;;;;;;0.00;0.00;;;21.20;99.90;;;;;;5001106;28;20444;-71
2022/08/26 10:53:29;;;;;;;0.52;0.35;;;21.20;99.90;;;;;;4992757;28;20046;-71
2022/08/26 10:56:05;;;;;;;0.00;0.00;;;21.30;99.90;;;;;;4990743;28;20064;-71
2022/08/26 10:59:08;;;;;;;0.32;0.25;;;21.20;99.90;;;;;;4996114;28;20497;-72
2022/08/26 11:01:45;;;;;;;1.15;0.52;;;21.30;99.90;;;;;;5010157;28;20038;-71
2022/08/26 11:04:13;;;;;;;0.00;0.00;;;21.20;99.90;;;;;;5000010;28;20176;-72
2022/08/26 11:06:39;;;;;;;0.00;0.00;;;21.30;99.90;;;;;;5003656;28;20140;-71
2022/08/26 11:09:07;;;;;;;0.00;0.00;;;21.30;99.90;;;;;;5007559;28;20172;-71
2022/08/26 11:11:38;;;;;;;0.10;0.10;;;21.30;99.90;;;;;;5007201;28;20565;-72
2022/08/26 11:14:09;;;;;;;0.08;0.08;;;21.20;99.90;;;;;;4998807;28;20049;-71
2022/08/26 11:16:45;;;;;;;0.00;0.00;;;21.20;99.90;;;;;;4996924;28;20154;-72
2022/08/26 11:19:52;;;;;;;0.00;0.00;;;21.30;99.90;;;;;;4996519;28;20046;-71
2022/08/26 11:22:33;;;;;;;0.43;0.43;;;21.30;99.90;;;;;;4981365;28;20088;-70
2022/08/26 11:25:01;;;;;;;0.00;0.00;;;21.30;99.90;;;;;;5006219;28;20104;-71
2022/08/26 11:27:35;;;;;;;0.00;0.00;;;21.20;99.90;;;;;;5010314;28;20034;-71
2022/08/26 11:30:12;;;;;;;0.00;0.00;;;21.20;99.90;;;;;;4996422;28;20042;-71
2022/08/26 11:32:38;;;;;;;1.65;0.63;;;21.10;99.90;;;;;;5000972;28;20046;-71
2022/08/26 11:35:04;;;;;;;0.00;0.00;;;21.30;99.90;;;;;;4994156;28;20046;-71
2022/08/26 11:37:38;;;;;;;0.00;0.00;;;21.30;99.90;;;;;;5001889;28;20053;-71
2022/08/26 11:40:08;;;;;;;0.00;0.00;;;21.40;99.90;;;;;;4996827;28;20133;-71
2022/08/26 11:42:50;;;;;;;0.00;0.00;;;21.40;99.90;;;;;;5006455;28;20045;-71
2022/08/26 11:45:36;;;;;;;0.00;0.00;;;21.40;99.90;;;;;;4994415;28;20133;-71
2022/08/26 11:48:29;;;;;;;0.00;0.00;;;21.40;99.90;;;;;;4994269;28;20080;-72
2022/08/26 11:51:07;;;;;;;0.00;0.00;;;21.50;99.90;;;;;;4996844;28;20050;-72
2022/08/26 11:53:38;;;;;;;0.00;0.00;;;21.50;99.90;;;;;;4995345;28;20060;-71
2022/08/26 11:56:11;;;;;;;0.00;0.00;;;21.50;99.90;;;;;;5008875;28;20050;-72
2022/08/26 11:58:42;;;;;;;10.05;0.60;;;21.60;99.90;;;;;;5000173;28;20046;-72
2022/08/26 12:01:10;;;;;;;1.08;0.75;;;21.60;99.90;;;;;;4999003;28;20057;-71
2022/08/26 12:03:44;;;;;;;0.00;0.00;;;21.50;99.90;;;;;;5008167;28;20149;-71
2022/08/26 12:06:13;;;;;;;0.05;0.05;;;21.50;99.90;;;;;;4996530;28;20069;-71
2022/08/26 12:08:42;;;;;;;0.00;0.00;;;21.50;99.90;;;;;;4996588;28;20124;-72
2022/08/26 12:11:23;;;;;;;0.00;0.00;;;21.60;99.90;;;;;;5007344;28;20658;-71
2022/08/26 12:14:06;;;;;;;5.15;1.65;;;21.50;99.90;;;;;;5002905;28;20065;-72
2022/08/26 12:16:38;;;;;;;0.00;0.00;;;21.60;99.90;;;;;;4992102;28;20054;-72
2022/08/26 12:19:24;;;;;;;0.00;0.00;;;21.50;99.90;;;;;;4997444;28;20038;-71
2022/08/26 12:21:57;;;;;;;0.10;0.10;;;21.50;99.90;;;;;;4999671;28;20423;-71
2022/08/26 12:24:24;;;;;;;0.00;0.00;;;21.60;99.90;;;;;;5006901;28;20666;-71
2022/08/26 12:27:02;;;;;;;0.00;0.00;;;21.60;99.90;;;;;;5003435;28;20501;-70
2022/08/26 12:29:27;;;;;;;0.00;0.00;;;21.60;99.90;;;;;;4993381;28;20129;-71
2022/08/26 12:32:16;;;;;;;0.00;0.00;;;21.60;99.90;;;;;;4994699;28;20540;-71
2022/08/26 12:34:44;;;;;;;0.10;0.10;;;21.60;99.90;;;;;;4996742;28;20041;-71
2022/08/26 12:37:11;;;;;;;0.00;0.00;;;21.70;99.90;;;;;;4999489;28;20487;-71
2022/08/26 12:39:40;;;;;;;0.00;0.00;;;21.70;99.90;;;;;;4995964;28;20045;-71
2022/08/26 12:42:14;;;;;;;0.00;0.00;;;21.70;99.90;;;;;;4993851;28;20498;-71
2022/08/26 12:44:47;;;;;;;0.00;0.00;;;21.70;99.90;;;;;;4993927;28;20122;-70
2022/08/26 12:47:21;;;;;;;0.00;0.00;;;21.80;99.90;;;;;;4999836;28;20117;-70
2022/08/26 12:49:56;;;;;;;0.00;0.00;;;21.80;99.90;;;;;;4990890;28;20049;-70
2022/08/26 12:52:28;;;;;;;0.10;0.10;;;21.90;99.90;;;;;;5003937;28;20049;-70
2022/08/26 12:55:00;;;;;;;7.07;1.35;;;21.80;99.90;;;;;;5009122;28;20401;-70
2022/08/26 12:57:30;;;;;;;0.22;0.20;;;21.70;99.90;;;;;;5007552;28;20061;-70
2022/08/26 13:00:21;;;;;;;0.00;0.00;;;21.60;99.90;;;;;;5001562;28;20508;-70
2022/08/26 13:02:47;;;;;;;0.00;0.00;;;21.60;99.90;;;;;;4989038;28;20042;-70
2022/08/26 13:05:25;;;;;;;0.00;0.00;;;21.60;99.90;;;;;;5003025;28;20046;-70